sensor_id;sensor_type;location;lat;lon;timestamp;temperature;humidity
19947;DHT22;10135;50.702;7.276;2023-07-29T05:32:16;22.20;79.30
19947;DHT22;10135;50.702;7.276;2023-07-29T05:34:17;22.20;79.30
19947;DHT22;10135;50.702;7.276;2023-07-29T05:36:18;22.20;79.30
19947;DHT22;10135;50.702;7.276;2023-07-29T05:38:25;22.20;79.40
19947;DHT22;10135;50.702;7.276;2023-07-29T05:40:35;22.20;79.70
19947;DHT22;10135;50.702;7.276;2023-07-29T05:42:36;22.20;79.80
19947;DHT22;10135;50.702;7.276;2023-07-29T05:44:36;22.20;79.50
19947;DHT22;10135;50.702;7.276;2023-07-29T05:46:37;22.20;79.60
19947;DHT22;10135;50.702;7.276;2023-07-29T05:48:38;22.20;79.60
19947;DHT22;10135;50.702;7.276;2023-07-29T05:50:38;22.30;79.70
19947;DHT22;10135;50.702;7.276;2023-07-29T05:52:41;22.30;79.70
19947;DHT22;10135;50.702;7.276;2023-07-29T05:55:03;22.30;79.90
19947;DHT22;10135;50.702;7.276;2023-07-29T05:57:11;22.30;79.70
19947;DHT22;10135;50.702;7.276;2023-07-29T05:59:30;22.30;79.70
19947;DHT22;10135;50.702;7.276;2023-07-29T06:01:57;22.30;80.00
19947;DHT22;10135;50.702;7.276;2023-07-29T06:03:58;22.30;80.80
19947;DHT22;10135;50.702;7.276;2023-07-29T06:09:19;22.30;79.90
19947;DHT22;10135;50.702;7.276;2023-07-29T06:15:56;22.30;80.20
19947;DHT22;10135;50.702;7.276;2023-07-29T06:19:05;22.40;80.20
19947;DHT22;10135;50.702;7.276;2023-07-29T06:28:48;22.40;79.90
19947;DHT22;10135;50.702;7.276;2023-07-29T06:34:40;22.40;80.30
19947;DHT22;10135;50.702;7.276;2023-07-29T06:40:07;22.40;79.90
19947;DHT22;10135;50.702;7.276;2023-07-29T06:53:21;22.40;80.20
19947;DHT22;10135;50.702;7.276;2023-07-29T06:59:11;22.40;80.10
19947;DHT22;10135;50.702;7.276;2023-07-29T07:06:10;22.50;80.00
19947;DHT22;10135;50.702;7.276;2023-07-29T07:08:39;22.50;79.90
19947;DHT22;10135;50.702;7.276;2023-07-29T07:13:38;22.50;79.70
19947;DHT22;10135;50.702;7.276;2023-07-29T07:15:50;22.50;80.00
19947;DHT22;10135;50.702;7.276;2023-07-29T07:17:54;22.60;80.10
19947;DHT22;10135;50.702;7.276;2023-07-29T07:20:00;22.60;80.00
19947;DHT22;10135;50.702;7.276;2023-07-29T07:22:03;22.50;79.90
19947;DHT22;10135;50.702;7.276;2023-07-29T07:24:07;22.60;80.00
19947;DHT22;10135;50.702;7.276;2023-07-29T07:26:34;22.70;80.00
19947;DHT22;10135;50.702;7.276;2023-07-29T07:28:59;22.70;80.00
19947;DHT22;10135;50.702;7.276;2023-07-29T07:30:59;22.70;80.00
19947;DHT22;10135;50.702;7.276;2023-07-29T07:33:00;22.80;79.90
19947;DHT22;10135;50.702;7.276;2023-07-29T07:36:07;22.90;79.90
19947;DHT22;10135;50.702;7.276;2023-07-29T07:38:08;22.90;79.80
19947;DHT22;10135;50.702;7.276;2023-07-29T07:41:21;23.00;79.60
19947;DHT22;10135;50.702;7.276;2023-07-29T07:43:21;23.00;79.50
19947;DHT22;10135;50.702;7.276;2023-07-29T07:45:40;23.00;79.30
19947;DHT22;10135;50.702;7.276;2023-07-29T07:47:48;23.00;79.30
19947;DHT22;10135;50.702;7.276;2023-07-29T07:49:59;23.00;79.30
19947;DHT22;10135;50.702;7.276;2023-07-29T07:52:09;23.00;79.30
19947;DHT22;10135;50.702;7.276;2023-07-29T07:54:28;23.00;79.00
19947;DHT22;10135;50.702;7.276;2023-07-29T07:56:58;23.00;78.80
19947;DHT22;10135;50.702;7.276;2023-07-29T07:59:02;23.00;79.00
19947;DHT22;10135;50.702;7.276;2023-07-29T08:01:07;23.00;78.80
19947;DHT22;10135;50.702;7.276;2023-07-29T08:03:08;23.00;78.70
19947;DHT22;10135;50.702;7.276;2023-07-29T08:05:09;23.00;78.70
19947;DHT22;10135;50.702;7.276;2023-07-29T08:07:10;23.10;78.80
19947;DHT22;10135;50.702;7.276;2023-07-29T08:09:10;23.00;79.00
19947;DHT22;10135;50.702;7.276;2023-07-29T08:11:11;23.10;79.40
19947;DHT22;10135;50.702;7.276;2023-07-29T08:13:12;23.20;79.30
19947;DHT22;10135;50.702;7.276;2023-07-29T08:15:12;23.20;79.10
19947;DHT22;10135;50.702;7.276;2023-07-29T08:17:13;23.40;78.90
19947;DHT22;10135;50.702;7.276;2023-07-29T08:19:14;23.40;78.40
19947;DHT22;10135;50.702;7.276;2023-07-29T08:21:14;23.50;78.20
19947;DHT22;10135;50.702;7.276;2023-07-29T08:23:15;23.50;78.00
19947;DHT22;10135;50.702;7.276;2023-07-29T08:25:15;23.50;77.90
19947;DHT22;10135;50.702;7.276;2023-07-29T08:27:16;23.50;77.70
19947;DHT22;10135;50.702;7.276;2023-07-29T08:29:17;23.50;77.60
19947;DHT22;10135;50.702;7.276;2023-07-29T08:31:17;23.50;77.60
19947;DHT22;10135;50.702;7.276;2023-07-29T08:33:18;23.50;77.40
19947;DHT22;10135;50.702;7.276;2023-07-29T08:35:18;23.50;77.30
19947;DHT22;10135;50.702;7.276;2023-07-29T08:37:19;23.50;77.20
19947;DHT22;10135;50.702;7.276;2023-07-29T08:39:20;23.40;77.10
19947;DHT22;10135;50.702;7.276;2023-07-29T08:41:32;23.50;77.20
19947;DHT22;10135;50.702;7.276;2023-07-29T08:44:06;23.40;76.40
19947;DHT22;10135;50.702;7.276;2023-07-29T08:46:20;23.40;76.50
19947;DHT22;10135;50.702;7.276;2023-07-29T08:48:28;23.40;76.80
19947;DHT22;10135;50.702;7.276;2023-07-29T08:50:33;23.40;76.40
19947;DHT22;10135;50.702;7.276;2023-07-29T08:52:36;23.40;76.60
19947;DHT22;10135;50.702;7.276;2023-07-29T08:54:38;23.30;76.40
19947;DHT22;10135;50.702;7.276;2023-07-29T08:56:40;23.40;76.50
19947;DHT22;10135;50.702;7.276;2023-07-29T08:58:42;23.30;76.30
19947;DHT22;10135;50.702;7.276;2023-07-29T09:00:43;23.40;76.40
19947;DHT22;10135;50.702;7.276;2023-07-29T09:02:44;23.30;76.30
19947;DHT22;10135;50.702;7.276;2023-07-29T09:04:45;23.30;76.20
19947;DHT22;10135;50.702;7.276;2023-07-29T09:06:47;23.30;76.10
19947;DHT22;10135;50.702;7.276;2023-07-29T09:08:51;23.30;76.00
19947;DHT22;10135;50.702;7.276;2023-07-29T09:10:54;23.30;76.10
19947;DHT22;10135;50.702;7.276;2023-07-29T09:12:58;23.30;76.10
19947;DHT22;10135;50.702;7.276;2023-07-29T09:14:59;23.30;76.00
19947;DHT22;10135;50.702;7.276;2023-07-29T09:17:00;23.20;75.90
19947;DHT22;10135;50.702;7.276;2023-07-29T09:19:01;23.20;75.90
19947;DHT22;10135;50.702;7.276;2023-07-29T09:21:03;23.20;75.80
19947;DHT22;10135;50.702;7.276;2023-07-29T09:23:07;23.20;75.80
19947;DHT22;10135;50.702;7.276;2023-07-29T09:25:12;23.20;75.60
19947;DHT22;10135;50.702;7.276;2023-07-29T09:27:25;23.20;75.90
19947;DHT22;10135;50.702;7.276;2023-07-29T09:29:28;23.20;75.60
19947;DHT22;10135;50.702;7.276;2023-07-29T09:31:29;23.20;75.90
19947;DHT22;10135;50.702;7.276;2023-07-29T09:33:33;23.20;76.00
19947;DHT22;10135;50.702;7.276;2023-07-29T09:35:38;23.20;75.90
19947;DHT22;10135;50.702;7.276;2023-07-29T09:37:39;23.20;76.10
19947;DHT22;10135;50.702;7.276;2023-07-29T09:39:44;23.10;76.00
19947;DHT22;10135;50.702;7.276;2023-07-29T09:41:48;23.20;76.10
19947;DHT22;10135;50.702;7.276;2023-07-29T09:43:56;23.20;75.90
19947;DHT22;10135;50.702;7.276;2023-07-29T09:46:02;23.10;75.80
19947;DHT22;10135;50.702;7.276;2023-07-29T09:48:04;23.10;75.90
19947;DHT22;10135;50.702;7.276;2023-07-29T09:50:09;23.20;76.10
19947;DHT22;10135;50.702;7.276;2023-07-29T09:52:10;23.10;76.00
19947;DHT22;10135;50.702;7.276;2023-07-29T09:54:11;23.10;76.00
19947;DHT22;10135;50.702;7.276;2023-07-29T09:56:14;23.20;76.10
19947;DHT22;10135;50.702;7.276;2023-07-29T09:58:19;23.20;76.10
19947;DHT22;10135;50.702;7.276;2023-07-29T10:00:30;23.20;76.20
19947;DHT22;10135;50.702;7.276;2023-07-29T10:02:32;23.20;76.20
19947;DHT22;10135;50.702;7.276;2023-07-29T10:04:33;23.20;76.30
19947;DHT22;10135;50.702;7.276;2023-07-29T10:06:34;23.20;75.90
19947;DHT22;10135;50.702;7.276;2023-07-29T10:08:35;23.20;75.80
19947;DHT22;10135;50.702;7.276;2023-07-29T10:10:36;23.20;75.60
19947;DHT22;10135;50.702;7.276;2023-07-29T10:12:36;23.20;75.80
19947;DHT22;10135;50.702;7.276;2023-07-29T10:14:38;23.20;75.70
19947;DHT22;10135;50.702;7.276;2023-07-29T10:16:42;23.20;75.60
19947;DHT22;10135;50.702;7.276;2023-07-29T10:18:45;23.20;75.50
19947;DHT22;10135;50.702;7.276;2023-07-29T10:20:49;23.20;75.70
19947;DHT22;10135;50.702;7.276;2023-07-29T10:22:52;23.20;75.70
19947;DHT22;10135;50.702;7.276;2023-07-29T10:25:02;23.20;75.70
19947;DHT22;10135;50.702;7.276;2023-07-29T10:27:06;23.30;75.40
19947;DHT22;10135;50.702;7.276;2023-07-29T10:29:12;23.30;75.40
19947;DHT22;10135;50.702;7.276;2023-07-29T10:31:16;23.40;75.20
19947;DHT22;10135;50.702;7.276;2023-07-29T10:33:17;23.40;75.20
19947;DHT22;10135;50.702;7.276;2023-07-29T10:35:18;23.40;75.20
19947;DHT22;10135;50.702;7.276;2023-07-29T10:37:19;23.40;75.10
19947;DHT22;10135;50.702;7.276;2023-07-29T10:39:24;23.40;75.00
19947;DHT22;10135;50.702;7.276;2023-07-29T10:41:59;23.50;75.00
19947;DHT22;10135;50.702;7.276;2023-07-29T10:44:01;23.50;74.50
19947;DHT22;10135;50.702;7.276;2023-07-29T10:46:22;23.50;75.00
19947;DHT22;10135;50.702;7.276;2023-07-29T10:50:36;23.50;74.50
19947;DHT22;10135;50.702;7.276;2023-07-29T10:54:47;23.50;74.70
19947;DHT22;10135;50.702;7.276;2023-07-29T10:56:49;23.50;74.40
19947;DHT22;10135;50.702;7.276;2023-07-29T10:58:50;23.50;74.60
19947;DHT22;10135;50.702;7.276;2023-07-29T11:00:50;23.50;74.60
19947;DHT22;10135;50.702;7.276;2023-07-29T11:03:00;23.50;74.50
19947;DHT22;10135;50.702;7.276;2023-07-29T11:05:08;23.50;74.20
19947;DHT22;10135;50.702;7.276;2023-07-29T11:11:43;23.40;74.10
19947;DHT22;10135;50.702;7.276;2023-07-29T11:13:43;23.40;74.40
19947;DHT22;10135;50.702;7.276;2023-07-29T11:15:46;23.40;74.60
19947;DHT22;10135;50.702;7.276;2023-07-29T11:19:56;23.30;74.80
19947;DHT22;10135;50.702;7.276;2023-07-29T11:22:00;23.30;74.80
19947;DHT22;10135;50.702;7.276;2023-07-29T11:24:01;23.30;74.90
19947;DHT22;10135;50.702;7.276;2023-07-29T11:26:03;23.20;75.00
19947;DHT22;10135;50.702;7.276;2023-07-29T11:28:05;23.20;75.10
19947;DHT22;10135;50.702;7.276;2023-07-29T11:30:07;23.20;75.10
19947;DHT22;10135;50.702;7.276;2023-07-29T11:41:20;23.20;75.40
19947;DHT22;10135;50.702;7.276;2023-07-29T11:43:27;23.20;75.20
19947;DHT22;10135;50.702;7.276;2023-07-29T11:49:03;23.10;75.40
19947;DHT22;10135;50.702;7.276;2023-07-29T11:53:42;23.00;74.70
19947;DHT22;10135;50.702;7.276;2023-07-29T11:55:43;23.00;74.70
19947;DHT22;10135;50.702;7.276;2023-07-29T11:57:44;23.00;74.80
19947;DHT22;10135;50.702;7.276;2023-07-29T11:59:46;23.00;74.90
19947;DHT22;10135;50.702;7.276;2023-07-29T12:01:47;22.90;74.90
19947;DHT22;10135;50.702;7.276;2023-07-29T12:03:49;23.00;75.00
19947;DHT22;10135;50.702;7.276;2023-07-29T12:05:51;23.00;74.90
19947;DHT22;10135;50.702;7.276;2023-07-29T12:07:51;23.00;74.90
19947;DHT22;10135;50.702;7.276;2023-07-29T12:09:52;23.00;75.10
19947;DHT22;10135;50.702;7.276;2023-07-29T12:11:54;23.10;75.30
19947;DHT22;10135;50.702;7.276;2023-07-29T12:13:54;23.20;75.40
19947;DHT22;10135;50.702;7.276;2023-07-29T12:16:04;23.20;75.40
19947;DHT22;10135;50.702;7.276;2023-07-29T12:18:04;23.30;74.80
19947;DHT22;10135;50.702;7.276;2023-07-29T12:20:09;23.40;75.00
19947;DHT22;10135;50.702;7.276;2023-07-29T12:22:10;23.50;74.80
19947;DHT22;10135;50.702;7.276;2023-07-29T12:24:15;23.60;75.10
19947;DHT22;10135;50.702;7.276;2023-07-29T12:26:15;23.70;74.70
19947;DHT22;10135;50.702;7.276;2023-07-29T12:28:16;23.80;74.90
19947;DHT22;10135;50.702;7.276;2023-07-29T12:30:20;23.80;74.70
19947;DHT22;10135;50.702;7.276;2023-07-29T12:32:25;23.90;74.20
19947;DHT22;10135;50.702;7.276;2023-07-29T12:34:28;24.00;74.30
19947;DHT22;10135;50.702;7.276;2023-07-29T12:36:46;24.10;74.40
19947;DHT22;10135;50.702;7.276;2023-07-29T12:38:49;24.10;73.90
19947;DHT22;10135;50.702;7.276;2023-07-29T12:40:49;24.30;74.30
19947;DHT22;10135;50.702;7.276;2023-07-29T12:42:50;24.30;74.10
19947;DHT22;10135;50.702;7.276;2023-07-29T12:44:51;24.40;73.90
19947;DHT22;10135;50.702;7.276;2023-07-29T12:46:52;24.40;73.70
19947;DHT22;10135;50.702;7.276;2023-07-29T12:48:53;24.50;73.60
19947;DHT22;10135;50.702;7.276;2023-07-29T12:50:53;24.60;73.40
19947;DHT22;10135;50.702;7.276;2023-07-29T12:52:54;24.60;73.20
19947;DHT22;10135;50.702;7.276;2023-07-29T12:54:55;24.70;72.90
19947;DHT22;10135;50.702;7.276;2023-07-29T12:56:55;24.70;72.70
19947;DHT22;10135;50.702;7.276;2023-07-29T12:58:56;24.80;72.70
19947;DHT22;10135;50.702;7.276;2023-07-29T13:00:58;24.80;72.50
19947;DHT22;10135;50.702;7.276;2023-07-29T13:02:59;24.90;72.50
19947;DHT22;10135;50.702;7.276;2023-07-29T13:05:00;25.00;72.30
19947;DHT22;10135;50.702;7.276;2023-07-29T13:07:00;25.00;72.10
19947;DHT22;10135;50.702;7.276;2023-07-29T13:09:01;25.10;72.10
19947;DHT22;10135;50.702;7.276;2023-07-29T13:11:02;25.20;72.20
19947;DHT22;10135;50.702;7.276;2023-07-29T13:13:03;25.20;72.00
19947;DHT22;10135;50.702;7.276;2023-07-29T13:15:05;25.30;71.80
19947;DHT22;10135;50.702;7.276;2023-07-29T13:17:06;25.30;71.70
19947;DHT22;10135;50.702;7.276;2023-07-29T13:19:07;25.40;71.70
19947;DHT22;10135;50.702;7.276;2023-07-29T13:21:07;25.40;71.60
19947;DHT22;10135;50.702;7.276;2023-07-29T13:23:08;25.50;71.50
19947;DHT22;10135;50.702;7.276;2023-07-29T13:25:09;25.50;71.10
19947;DHT22;10135;50.702;7.276;2023-07-29T13:27:09;25.60;71.00
19947;DHT22;10135;50.702;7.276;2023-07-29T13:29:10;25.60;70.80
19947;DHT22;10135;50.702;7.276;2023-07-29T13:31:11;25.60;70.70
19947;DHT22;10135;50.702;7.276;2023-07-29T13:33:11;25.60;70.70
19947;DHT22;10135;50.702;7.276;2023-07-29T13:35:12;25.60;70.60
19947;DHT22;10135;50.702;7.276;2023-07-29T13:37:12;25.50;70.50
19947;DHT22;10135;50.702;7.276;2023-07-29T13:39:13;25.50;70.50
19947;DHT22;10135;50.702;7.276;2023-07-29T13:41:14;25.50;70.40
19947;DHT22;10135;50.702;7.276;2023-07-29T13:43:14;25.50;70.20
19947;DHT22;10135;50.702;7.276;2023-07-29T13:45:15;25.40;70.10
19947;DHT22;10135;50.702;7.276;2023-07-29T13:47:16;25.40;70.10
19947;DHT22;10135;50.702;7.276;2023-07-29T13:49:17;25.30;70.10
19947;DHT22;10135;50.702;7.276;2023-07-29T13:51:17;25.30;70.10
19947;DHT22;10135;50.702;7.276;2023-07-29T13:53:18;25.30;69.90
19947;DHT22;10135;50.702;7.276;2023-07-29T13:55:18;25.30;70.00
19947;DHT22;10135;50.702;7.276;2023-07-29T13:57:19;25.20;69.90
19947;DHT22;10135;50.702;7.276;2023-07-29T13:59:20;25.10;69.90
19947;DHT22;10135;50.702;7.276;2023-07-29T14:01:21;25.10;70.10
19947;DHT22;10135;50.702;7.276;2023-07-29T14:03:21;25.10;70.30
19947;DHT22;10135;50.702;7.276;2023-07-29T14:05:22;25.00;70.40
19947;DHT22;10135;50.702;7.276;2023-07-29T14:07:23;25.00;70.50
19947;DHT22;10135;50.702;7.276;2023-07-29T14:09:24;25.00;70.50
19947;DHT22;10135;50.702;7.276;2023-07-29T14:11:25;24.90;70.50
19947;DHT22;10135;50.702;7.276;2023-07-29T14:13:26;24.80;70.40
19947;DHT22;10135;50.702;7.276;2023-07-29T14:15:26;24.80;70.40
19947;DHT22;10135;50.702;7.276;2023-07-29T14:17:28;24.80;70.50
19947;DHT22;10135;50.702;7.276;2023-07-29T14:19:29;24.70;70.50
19947;DHT22;10135;50.702;7.276;2023-07-29T14:21:30;24.70;70.60
19947;DHT22;10135;50.702;7.276;2023-07-29T14:23:30;24.60;70.60
19947;DHT22;10135;50.702;7.276;2023-07-29T14:25:33;24.60;70.60
19947;DHT22;10135;50.702;7.276;2023-07-29T14:27:33;24.60;70.80
19947;DHT22;10135;50.702;7.276;2023-07-29T14:29:34;24.60;70.90
19947;DHT22;10135;50.702;7.276;2023-07-29T14:31:34;24.50;71.00
19947;DHT22;10135;50.702;7.276;2023-07-29T14:33:35;24.50;71.10
19947;DHT22;10135;50.702;7.276;2023-07-29T14:35:36;24.50;71.30
19947;DHT22;10135;50.702;7.276;2023-07-29T14:37:36;24.50;71.40
19947;DHT22;10135;50.702;7.276;2023-07-29T14:39:38;24.60;71.60
19947;DHT22;10135;50.702;7.276;2023-07-29T14:41:38;24.60;71.60
19947;DHT22;10135;50.702;7.276;2023-07-29T14:43:40;24.70;71.50
19947;DHT22;10135;50.702;7.276;2023-07-29T14:45:40;24.70;71.60
19947;DHT22;10135;50.702;7.276;2023-07-29T14:47:41;24.80;71.50
19947;DHT22;10135;50.702;7.276;2023-07-29T14:49:43;24.90;71.70
19947;DHT22;10135;50.702;7.276;2023-07-29T14:51:44;25.00;71.30
19947;DHT22;10135;50.702;7.276;2023-07-29T14:53:45;25.10;71.10
19947;DHT22;10135;50.702;7.276;2023-07-29T14:55:45;25.10;70.90
19947;DHT22;10135;50.702;7.276;2023-07-29T14:57:46;25.20;70.70
19947;DHT22;10135;50.702;7.276;2023-07-29T14:59:47;25.20;70.50
19947;DHT22;10135;50.702;7.276;2023-07-29T15:01:48;25.20;70.30
19947;DHT22;10135;50.702;7.276;2023-07-29T15:03:48;25.20;70.10
19947;DHT22;10135;50.702;7.276;2023-07-29T15:05:49;25.20;70.10
19947;DHT22;10135;50.702;7.276;2023-07-29T15:07:50;25.10;70.00
19947;DHT22;10135;50.702;7.276;2023-07-29T15:09:50;25.10;70.10
19947;DHT22;10135;50.702;7.276;2023-07-29T15:11:51;25.10;70.00
19947;DHT22;10135;50.702;7.276;2023-07-29T15:13:52;25.00;70.00
19947;DHT22;10135;50.702;7.276;2023-07-29T15:15:52;25.00;69.80
19947;DHT22;10135;50.702;7.276;2023-07-29T15:17:53;25.00;69.80
19947;DHT22;10135;50.702;7.276;2023-07-29T15:19:54;25.00;69.90
19947;DHT22;10135;50.702;7.276;2023-07-29T15:21:54;24.90;70.00
19947;DHT22;10135;50.702;7.276;2023-07-29T15:23:55;24.90;70.00
19947;DHT22;10135;50.702;7.276;2023-07-29T15:25:56;24.80;69.80
19947;DHT22;10135;50.702;7.276;2023-07-29T15:27:56;24.80;69.90
19947;DHT22;10135;50.702;7.276;2023-07-29T15:29:58;24.70;69.80
19947;DHT22;10135;50.702;7.276;2023-07-29T15:38:37;24.70;69.50
19947;DHT22;10135;50.702;7.276;2023-07-29T15:41:37;24.60;69.50
19947;DHT22;10135;50.702;7.276;2023-07-29T15:47:08;24.40;70.60
19947;DHT22;10135;50.702;7.276;2023-07-29T15:49:10;24.40;70.00
19947;DHT22;10135;50.702;7.276;2023-07-29T15:51:11;24.40;70.10
19947;DHT22;10135;50.702;7.276;2023-07-29T15:53:11;24.30;70.20
19947;DHT22;10135;50.702;7.276;2023-07-29T15:55:12;24.30;70.50
19947;DHT22;10135;50.702;7.276;2023-07-29T15:57:13;24.30;70.50
19947;DHT22;10135;50.702;7.276;2023-07-29T15:59:13;24.20;70.50
19947;DHT22;10135;50.702;7.276;2023-07-29T16:01:14;24.20;70.70
19947;DHT22;10135;50.702;7.276;2023-07-29T16:03:15;24.20;70.70
19947;DHT22;10135;50.702;7.276;2023-07-29T16:05:15;24.20;70.80
19947;DHT22;10135;50.702;7.276;2023-07-29T16:07:16;24.10;70.70
19947;DHT22;10135;50.702;7.276;2023-07-29T16:09:17;24.20;70.80
19947;DHT22;10135;50.702;7.276;2023-07-29T16:11:21;24.20;70.90
19947;DHT22;10135;50.702;7.276;2023-07-29T16:13:22;24.10;70.90
19947;DHT22;10135;50.702;7.276;2023-07-29T16:15:22;24.10;70.70
19947;DHT22;10135;50.702;7.276;2023-07-29T16:17:23;24.10;70.70
19947;DHT22;10135;50.702;7.276;2023-07-29T16:19:25;24.10;70.60
19947;DHT22;10135;50.702;7.276;2023-07-29T16:21:28;24.00;70.50
19947;DHT22;10135;50.702;7.276;2023-07-29T16:23:30;24.00;70.60
19947;DHT22;10135;50.702;7.276;2023-07-29T16:25:32;24.00;70.60
19947;DHT22;10135;50.702;7.276;2023-07-29T16:27:32;24.00;70.60
19947;DHT22;10135;50.702;7.276;2023-07-29T16:29:33;23.90;70.50
19947;DHT22;10135;50.702;7.276;2023-07-29T16:31:34;23.90;70.60
19947;DHT22;10135;50.702;7.276;2023-07-29T16:33:35;23.80;70.70
19947;DHT22;10135;50.702;7.276;2023-07-29T16:35:36;23.80;70.80
19947;DHT22;10135;50.702;7.276;2023-07-29T16:37:36;23.80;70.90
19947;DHT22;10135;50.702;7.276;2023-07-29T16:39:37;23.80;70.80
19947;DHT22;10135;50.702;7.276;2023-07-29T16:41:37;23.70;70.80
19947;DHT22;10135;50.702;7.276;2023-07-29T16:43:41;23.70;70.80
19947;DHT22;10135;50.702;7.276;2023-07-29T16:45:42;23.70;70.90
19947;DHT22;10135;50.702;7.276;2023-07-29T16:47:42;23.70;71.10
19947;DHT22;10135;50.702;7.276;2023-07-29T16:49:43;23.70;71.00
19947;DHT22;10135;50.702;7.276;2023-07-29T16:51:44;23.60;71.00
19947;DHT22;10135;50.702;7.276;2023-07-29T16:53:45;23.70;71.10
19947;DHT22;10135;50.702;7.276;2023-07-29T16:55:45;23.70;71.10
19947;DHT22;10135;50.702;7.276;2023-07-29T16:57:46;23.60;71.20
19947;DHT22;10135;50.702;7.276;2023-07-29T16:59:47;23.70;71.20
19947;DHT22;10135;50.702;7.276;2023-07-29T17:01:47;23.70;71.30
19947;DHT22;10135;50.702;7.276;2023-07-29T17:03:48;23.70;71.30
19947;DHT22;10135;50.702;7.276;2023-07-29T17:05:49;23.70;71.40
19947;DHT22;10135;50.702;7.276;2023-07-29T17:07:53;23.70;71.40
19947;DHT22;10135;50.702;7.276;2023-07-29T17:09:53;23.70;71.30
19947;DHT22;10135;50.702;7.276;2023-07-29T17:11:54;23.80;71.30
19947;DHT22;10135;50.702;7.276;2023-07-29T17:13:59;23.80;71.20
19947;DHT22;10135;50.702;7.276;2023-07-29T17:16:00;23.80;71.10
19947;DHT22;10135;50.702;7.276;2023-07-29T17:18:00;23.80;71.10
19947;DHT22;10135;50.702;7.276;2023-07-29T17:20:02;23.80;71.00
19947;DHT22;10135;50.702;7.276;2023-07-29T17:22:03;23.80;71.80
19947;DHT22;10135;50.702;7.276;2023-07-29T17:24:03;23.70;71.00
19947;DHT22;10135;50.702;7.276;2023-07-29T17:26:04;23.70;71.00
19947;DHT22;10135;50.702;7.276;2023-07-29T17:28:05;23.70;71.00
19947;DHT22;10135;50.702;7.276;2023-07-29T17:30:07;23.70;70.80
19947;DHT22;10135;50.702;7.276;2023-07-29T17:32:08;23.70;70.80
19947;DHT22;10135;50.702;7.276;2023-07-29T17:34:09;23.70;71.00
19947;DHT22;10135;50.702;7.276;2023-07-29T17:36:10;23.60;70.90
19947;DHT22;10135;50.702;7.276;2023-07-29T17:38:11;23.60;71.00
19947;DHT22;10135;50.702;7.276;2023-07-29T17:40:12;23.60;71.10
19947;DHT22;10135;50.702;7.276;2023-07-29T17:42:12;23.60;71.10
19947;DHT22;10135;50.702;7.276;2023-07-29T17:44:13;23.50;71.10
19947;DHT22;10135;50.702;7.276;2023-07-29T17:46:14;23.50;71.10
19947;DHT22;10135;50.702;7.276;2023-07-29T17:48:17;23.50;71.10
19947;DHT22;10135;50.702;7.276;2023-07-29T17:50:18;23.50;71.00
19947;DHT22;10135;50.702;7.276;2023-07-29T17:52:20;23.50;71.20
19947;DHT22;10135;50.702;7.276;2023-07-29T17:54:20;23.50;71.20
19947;DHT22;10135;50.702;7.276;2023-07-29T17:56:21;23.50;71.30
19947;DHT22;10135;50.702;7.276;2023-07-29T17:58:21;23.50;71.10
19947;DHT22;10135;50.702;7.276;2023-07-29T18:00:22;23.50;71.10
19947;DHT22;10135;50.702;7.276;2023-07-29T18:02:23;23.50;71.10
19947;DHT22;10135;50.702;7.276;2023-07-29T18:04:23;23.50;71.30
19947;DHT22;10135;50.702;7.276;2023-07-29T18:06:24;23.50;71.30
19947;DHT22;10135;50.702;7.276;2023-07-29T18:08:25;23.50;71.40
19947;DHT22;10135;50.702;7.276;2023-07-29T18:10:25;23.50;71.50
19947;DHT22;10135;50.702;7.276;2023-07-29T18:12:26;23.50;71.40
19947;DHT22;10135;50.702;7.276;2023-07-29T18:14:27;23.50;71.30
19947;DHT22;10135;50.702;7.276;2023-07-29T18:16:29;23.50;71.30
19947;DHT22;10135;50.702;7.276;2023-07-29T18:18:29;23.50;71.40
19947;DHT22;10135;50.702;7.276;2023-07-29T18:20:30;23.50;71.60
19947;DHT22;10135;50.702;7.276;2023-07-29T18:22:31;23.50;71.50
19947;DHT22;10135;50.702;7.276;2023-07-29T18:24:31;23.50;71.50
19947;DHT22;10135;50.702;7.276;2023-07-29T18:26:32;23.50;71.60
19947;DHT22;10135;50.702;7.276;2023-07-29T18:28:33;23.50;71.60
19947;DHT22;10135;50.702;7.276;2023-07-29T18:30:34;23.50;71.50
19947;DHT22;10135;50.702;7.276;2023-07-29T18:32:35;23.50;71.60
19947;DHT22;10135;50.702;7.276;2023-07-29T18:34:35;23.50;71.70
19947;DHT22;10135;50.702;7.276;2023-07-29T18:36:36;23.40;71.70
19947;DHT22;10135;50.702;7.276;2023-07-29T18:38:37;23.40;71.60
19947;DHT22;10135;50.702;7.276;2023-07-29T18:40:39;23.40;71.50
19947;DHT22;10135;50.702;7.276;2023-07-29T18:42:41;23.40;71.40
19947;DHT22;10135;50.702;7.276;2023-07-29T18:44:41;23.30;71.40
19947;DHT22;10135;50.702;7.276;2023-07-29T18:46:42;23.40;71.60
19947;DHT22;10135;50.702;7.276;2023-07-29T18:48:43;23.30;71.40
19947;DHT22;10135;50.702;7.276;2023-07-29T18:50:44;23.40;71.40
19947;DHT22;10135;50.702;7.276;2023-07-29T18:52:44;23.30;71.40
19947;DHT22;10135;50.702;7.276;2023-07-29T18:54:45;23.30;71.60
19947;DHT22;10135;50.702;7.276;2023-07-29T18:56:46;23.30;71.60
19947;DHT22;10135;50.702;7.276;2023-07-29T18:58:46;23.30;71.60
19947;DHT22;10135;50.702;7.276;2023-07-29T19:00:47;23.20;71.60
19947;DHT22;10135;50.702;7.276;2023-07-29T19:02:49;23.20;71.70
19947;DHT22;10135;50.702;7.276;2023-07-29T19:04:49;23.20;71.70
19947;DHT22;10135;50.702;7.276;2023-07-29T19:06:50;23.20;71.80
19947;DHT22;10135;50.702;7.276;2023-07-29T19:08:55;23.20;71.80
19947;DHT22;10135;50.702;7.276;2023-07-29T19:10:56;23.20;71.80
19947;DHT22;10135;50.702;7.276;2023-07-29T19:12:56;23.20;71.80
19947;DHT22;10135;50.702;7.276;2023-07-29T19:14:57;23.10;71.90
19947;DHT22;10135;50.702;7.276;2023-07-29T19:16:58;23.10;72.10
19947;DHT22;10135;50.702;7.276;2023-07-29T19:18:58;23.10;72.10
19947;DHT22;10135;50.702;7.276;2023-07-29T19:20:59;23.10;72.20
19947;DHT22;10135;50.702;7.276;2023-07-29T19:22:59;23.00;72.10
19947;DHT22;10135;50.702;7.276;2023-07-29T19:25:00;23.00;72.20
19947;DHT22;10135;50.702;7.276;2023-07-29T19:27:01;23.00;72.20
19947;DHT22;10135;50.702;7.276;2023-07-29T19:29:04;23.00;72.30
19947;DHT22;10135;50.702;7.276;2023-07-29T19:31:04;23.00;72.30
19947;DHT22;10135;50.702;7.276;2023-07-29T19:33:05;23.00;72.30
19947;DHT22;10135;50.702;7.276;2023-07-29T19:35:06;23.00;72.40
19947;DHT22;10135;50.702;7.276;2023-07-29T19:37:07;22.90;72.40
19947;DHT22;10135;50.702;7.276;2023-07-29T19:39:09;22.90;72.40
19947;DHT22;10135;50.702;7.276;2023-07-29T19:41:09;22.90;72.50
19947;DHT22;10135;50.702;7.276;2023-07-29T19:43:10;22.80;72.50
19947;DHT22;10135;50.702;7.276;2023-07-29T19:45:11;22.80;72.50
19947;DHT22;10135;50.702;7.276;2023-07-29T19:47:11;22.80;72.50
19947;DHT22;10135;50.702;7.276;2023-07-29T19:49:12;22.80;72.50
19947;DHT22;10135;50.702;7.276;2023-07-29T19:51:13;22.80;72.60